Time;durP1;ratioP1;P1;durP2;ratioP2;P2;SDS_P1;SDS_P2;PMS_P1;PMS_P2;Temp;Humidity;BMP_temperature;BMP_pressure;BME280_temperature;BME280_humidity;BME280_pressure;Samples;Min_cycle;Max_cycle;Signal;HPM_P1;HPM_P2
2022/04/27 00:01:10;;;;;;;5.63;3.30;;;11.10;96.60;;;;;;5087508;28;20055;-79
2022/04/27 00:03:41;;;;;;;6.13;4.25;;;11.10;96.60;;;;;;5074237;28;20048;-79
2022/04/27 00:06:09;;;;;;;6.65;4.82;;;11.10;96.60;;;;;;5073676;28;20139;-79
2022/04/27 00:08:37;;;;;;;5.60;2.85;;;11.00;96.60;;;;;;5072002;28;20040;-79
2022/04/27 00:11:04;;;;;;;8.07;4.38;;;11.00;96.60;;;;;;5067771;28;20037;-79
2022/04/27 00:13:35;;;;;;;6.93;2.78;;;11.00;96.60;;;;;;5070814;28;20130;-79
2022/04/27 00:16:12;;;;;;;6.03;2.95;;;10.80;96.60;;;;;;5074043;28;20131;-79
2022/04/27 00:18:38;;;;;;;9.38;2.95;;;11.00;96.60;;;;;;5071497;28;20247;-79
2022/04/27 00:21:08;;;;;;;8.13;3.63;;;11.00;96.60;;;;;;5070146;28;20116;-79
2022/04/27 00:23:34;;;;;;;5.80;3.22;;;10.90;96.60;;;;;;5070738;28;20052;-78
2022/04/27 00:26:03;;;;;;;4.90;2.95;;;10.80;96.60;;;;;;5074843;28;20407;-79
2022/04/27 00:28:41;;;;;;;4.97;2.97;;;10.80;96.70;;;;;;5069835;28;20039;-79
2022/04/27 00:31:12;;;;;;;6.30;3.10;;;10.80;96.70;;;;;;5074037;28;20041;-79
2022/04/27 00:33:41;;;;;;;7.53;3.90;;;10.70;96.70;;;;;;5074153;28;20054;-79
2022/04/27 00:36:11;;;;;;;7.65;2.83;;;10.10;96.50;;;;;;5075060;28;20345;-79
2022/04/27 00:38:39;;;;;;;4.63;3.05;;;10.70;96.80;;;;;;5078891;28;20037;-79
2022/04/27 00:41:09;;;;;;;11.40;3.90;;;9.60;96.50;;;;;;5079021;28;20043;-80
2022/04/27 00:43:41;;;;;;;9.23;2.67;;;10.60;96.80;;;;;;5088420;28;20059;-78
2022/04/27 00:46:11;;;;;;;5.47;3.65;;;10.60;96.90;;;;;;5088753;28;20040;-79
2022/04/27 00:48:41;;;;;;;7.28;3.45;;;10.50;96.90;;;;;;5102951;28;20051;-79
2022/04/27 00:51:11;;;;;;;4.13;2.97;;;10.50;97.00;;;;;;5087122;28;20047;-79
2022/04/27 00:53:40;;;;;;;4.70;2.72;;;10.50;97.00;;;;;;5085475;28;20052;-79
2022/04/27 00:56:07;;;;;;;6.63;3.65;;;10.40;97.00;;;;;;5101548;28;20101;-79
2022/04/27 00:58:33;;;;;;;6.40;3.42;;;10.20;97.00;;;;;;5099666;28;20044;-79
2022/04/27 01:00:59;;;;;;;7.30;3.40;;;10.40;97.10;;;;;;5098475;28;20028;-79
2022/04/27 01:03:37;;;;;;;7.30;3.85;;;10.40;97.10;;;;;;5094899;28;20040;-79
2022/04/27 01:06:06;;;;;;;4.43;3.00;;;10.40;97.10;;;;;;5095702;28;20044;-79
2022/04/27 01:08:33;;;;;;;11.15;6.07;;;10.40;97.10;;;;;;5061144;28;20080;-78
2022/04/27 01:11:01;;;;;;;5.75;3.28;;;10.40;97.10;;;;;;5079974;28;20607;-78
2022/04/27 01:13:27;;;;;;;6.60;3.25;;;10.30;97.20;;;;;;5092895;28;20068;-79
2022/04/27 01:15:53;;;;;;;5.18;2.92;;;10.30;97.30;;;;;;5092644;28;20123;-79
2022/04/27 01:18:22;;;;;;;12.02;4.55;;;10.30;97.40;;;;;;5077886;28;20043;-79
2022/04/27 01:20:51;;;;;;;7.00;3.83;;;10.30;97.60;;;;;;5092923;28;20043;-79
2022/04/27 01:23:19;;;;;;;8.90;3.47;;;10.20;97.40;;;;;;5080305;28;20048;-78
2022/04/27 01:26:05;;;;;;;5.45;3.25;;;10.20;97.50;;;;;;5071776;28;20044;-79
2022/04/27 01:28:35;;;;;;;8.07;4.75;;;10.20;97.40;;;;;;5074774;28;20036;-79
2022/04/27 01:31:11;;;;;;;9.77;4.03;;;10.10;97.50;;;;;;5090780;28;20043;-78
2022/04/27 01:33:38;;;;;;;6.63;3.13;;;10.10;97.50;;;;;;5086978;28;20041;-79
2022/04/27 01:36:09;;;;;;;6.13;3.20;;;10.10;97.50;;;;;;5088773;28;20052;-78
2022/04/27 01:38:44;;;;;;;6.75;3.17;;;10.10;97.60;;;;;;5090118;28;20505;-79
2022/04/27 01:41:13;;;;;;;3.88;2.83;;;10.60;97.70;;;;;;5071186;28;20052;-79
2022/04/27 01:43:39;;;;;;;6.63;3.17;;;10.10;97.50;;;;;;5068720;28;20044;-78
2022/04/27 01:46:09;;;;;;;6.10;3.20;;;10.10;97.50;;;;;;5071899;28;20067;-78
2022/04/27 01:48:39;;;;;;;7.75;3.65;;;10.00;97.60;;;;;;5074175;28;20066;-79
2022/04/27 01:51:05;;;;;;;6.45;3.40;;;9.90;97.80;;;;;;5094691;28;20557;-78
2022/04/27 01:56:27;;;;;;;6.00;3.03;;;9.90;97.90;;;;;;5094244;28;20132;-79
2022/04/27 01:58:56;;;;;;;8.63;3.35;;;9.90;97.90;;;;;;5085252;28;20040;-79
2022/04/27 02:01:22;;;;;;;7.95;3.47;;;9.80;97.90;;;;;;5080666;28;20047;-79
2022/04/27 02:03:51;;;;;;;8.25;3.88;;;9.90;97.90;;;;;;5077811;28;20044;-79
2022/04/27 02:06:26;;;;;;;7.70;3.92;;;9.80;98.00;;;;;;5077507;28;20491;-77
2022/04/27 02:08:52;;;;;;;6.78;3.83;;;9.80;98.10;;;;;;5072747;28;20509;-78
2022/04/27 02:11:24;;;;;;;8.48;3.97;;;9.70;98.20;;;;;;5070904;28;20055;-79
2022/04/27 02:13:55;;;;;;;6.15;3.70;;;9.60;98.20;;;;;;5076585;28;20048;-79
2022/04/27 02:16:29;;;;;;;5.07;2.97;;;9.70;98.20;;;;;;5079572;28;20052;-79
2022/04/27 02:18:59;;;;;;;6.88;3.20;;;9.60;98.30;;;;;;5094880;28;20036;-78
2022/04/27 02:21:25;;;;;;;6.22;4.13;;;9.60;98.40;;;;;;5068251;28;20040;-79
2022/04/27 02:24:02;;;;;;;5.35;3.63;;;9.60;98.50;;;;;;5092080;27;20075;-79
2022/04/27 02:26:36;;;;;;;8.30;3.70;;;9.50;98.50;;;;;;5093757;27;20040;-79
2022/04/27 02:29:03;;;;;;;5.53;3.55;;;9.00;98.50;;;;;;5096264;28;20051;-79
2022/04/27 02:31:29;;;;;;;7.10;3.88;;;9.50;98.70;;;;;;5080856;28;20045;-78
2022/04/27 02:34:06;;;;;;;5.45;3.72;;;9.50;98.80;;;;;;5075207;28;20597;-79
2022/04/27 02:36:33;;;;;;;7.72;3.20;;;9.50;99.00;;;;;;5075614;28;20458;-79
2022/04/27 02:38:59;;;;;;;5.20;3.60;;;8.90;98.60;;;;;;5083423;28;20114;-79
2022/04/27 02:41:31;;;;;;;8.30;4.38;;;9.40;98.80;;;;;;5095112;28;20048;-78
2022/04/27 02:43:57;;;;;;;6.03;3.30;;;9.40;98.80;;;;;;5092587;28;20044;-78
2022/04/27 02:46:25;;;;;;;11.07;4.45;;;9.40;98.90;;;;;;5078935;28;20071;-79
2022/04/27 02:51:51;;;;;;;8.50;4.18;;;8.90;98.90;;;;;;5093847;28;20044;-78
2022/04/27 02:54:20;;;;;;;7.72;3.40;;;9.40;98.90;;;;;;5090389;28;20694;-78
2022/04/27 02:56:47;;;;;;;6.85;3.60;;;8.80;98.80;;;;;;5063436;28;20052;-78
2022/04/27 02:59:23;;;;;;;9.55;4.35;;;9.30;98.90;;;;;;5090936;27;20514;-79
2022/04/27 03:01:55;;;;;;;6.97;3.65;;;9.90;99.10;;;;;;5071380;28;21482;-78
2022/04/27 03:04:21;;;;;;;4.70;2.50;;;9.30;98.90;;;;;;5090644;27;20067;-78
2022/04/27 03:06:50;;;;;;;8.77;4.13;;;10.00;99.20;;;;;;5068818;28;20934;-77
2022/04/27 03:09:15;;;;;;;8.48;3.80;;;9.30;99.00;;;;;;5073469;28;20044;-78
2022/04/27 03:11:45;;;;;;;6.07;3.90;;;9.30;99.00;;;;;;5073636;28;20877;-78
2022/04/27 03:14:11;;;;;;;5.65;3.53;;;9.20;99.10;;;;;;5072728;28;20930;-78
2022/04/27 03:16:39;;;;;;;6.88;4.20;;;9.20;99.20;;;;;;5087699;28;20067;-78
2022/04/27 03:19:34;;;;;;;6.80;4.28;;;9.20;99.30;;;;;;5069853;28;20127;-78
2022/04/27 03:22:00;;;;;;;8.25;3.95;;;9.10;99.30;;;;;;5070515;28;20055;-78
2022/04/27 03:24:26;;;;;;;8.05;4.28;;;9.10;99.30;;;;;;5070999;28;20053;-78
2022/04/27 03:26:52;;;;;;;7.43;3.78;;;9.10;99.40;;;;;;5071021;28;20087;-78
2022/04/27 03:29:20;;;;;;;7.50;4.28;;;9.10;99.40;;;;;;5073023;28;20044;-78
2022/04/27 03:31:49;;;;;;;12.00;4.57;;;9.00;99.40;;;;;;5076776;28;20328;-78
2022/04/27 03:34:21;;;;;;;10.55;4.07;;;8.90;99.40;;;;;;5075848;28;20045;-77
2022/04/27 03:36:47;;;;;;;12.18;4.53;;;8.80;99.50;;;;;;5073333;28;20045;-78
2022/04/27 03:39:15;;;;;;;7.30;4.68;;;9.00;99.60;;;;;;5072770;28;20048;-79
2022/04/27 03:41:41;;;;;;;7.50;4.35;;;8.90;99.60;;;;;;5068044;28;20032;-78
2022/04/27 03:44:07;;;;;;;9.40;5.03;;;8.90;99.70;;;;;;5072278;28;20591;-78
2022/04/27 03:46:33;;;;;;;6.95;4.38;;;8.80;99.80;;;;;;5072743;28;20067;-78
2022/04/27 03:49:02;;;;;;;9.27;3.85;;;8.80;99.80;;;;;;5072984;28;20099;-78
2022/04/27 03:51:28;;;;;;;7.50;4.38;;;8.80;99.80;;;;;;5087235;27;20048;-78
2022/04/27 03:53:57;;;;;;;7.45;4.32;;;9.10;99.90;;;;;;5076327;28;20075;-78
2022/04/27 03:56:26;;;;;;;10.43;4.75;;;8.80;99.90;;;;;;5082665;28;20052;-78
2022/04/27 03:58:54;;;;;;;6.15;4.03;;;8.80;99.90;;;;;;5067687;28;20558;-78
2022/04/27 04:01:23;;;;;;;8.95;4.50;;;8.80;99.90;;;;;;5076588;28;20134;-78
2022/04/27 04:03:51;;;;;;;7.78;3.80;;;8.50;99.90;;;;;;5073331;28;20044;-78
2022/04/27 04:06:19;;;;;;;9.30;4.75;;;8.70;99.90;;;;;;5094815;28;20044;-78
2022/04/27 04:08:45;;;;;;;7.38;4.25;;;8.70;99.90;;;;;;5073801;28;20040;-78
2022/04/27 04:11:11;;;;;;;11.55;4.38;;;8.70;99.90;;;;;;5090440;27;20546;-78
2022/04/27 04:13:40;;;;;;;9.02;4.72;;;8.60;99.90;;;;;;5093355;28;20044;-78
2022/04/27 04:16:08;;;;;;;10.57;4.55;;;8.60;99.90;;;;;;5092466;27;20043;-78
2022/04/27 04:18:34;;;;;;;7.85;4.10;;;8.60;99.90;;;;;;5075656;28;20738;-79
2022/04/27 04:21:00;;;;;;;10.23;4.35;;;8.50;99.90;;;;;;5074881;28;20051;-79
2022/04/27 04:23:29;;;;;;;9.50;3.67;;;8.50;99.90;;;;;;5087332;28;20047;-78
2022/04/27 04:28:41;;;;;;;11.23;5.72;;;8.50;99.90;;;;;;5090328;28;20191;-78
2022/04/27 04:31:07;;;;;;;9.02;3.88;;;8.30;99.90;;;;;;5090807;28;20094;-78
2022/04/27 04:33:33;;;;;;;7.45;4.15;;;8.50;99.90;;;;;;5076955;28;20572;-77
2022/04/27 04:35:59;;;;;;;9.38;4.80;;;8.50;99.90;;;;;;5071450;28;20539;-78
2022/04/27 04:38:25;;;;;;;8.85;4.90;;;8.50;99.90;;;;;;5088815;27;20045;-78
2022/04/27 04:40:53;;;;;;;9.13;4.07;;;8.50;99.90;;;;;;5092550;28;20044;-79
2022/04/27 04:43:23;;;;;;;11.65;4.60;;;8.50;99.90;;;;;;5075971;28;20105;-78
2022/04/27 04:45:50;;;;;;;8.68;4.40;;;8.50;99.90;;;;;;5071560;28;20696;-78
2022/04/27 04:48:22;;;;;;;7.88;3.83;;;8.50;99.90;;;;;;5073225;28;20056;-77
2022/04/27 04:50:52;;;;;;;11.60;4.95;;;8.00;99.90;;;;;;5071203;28;20098;-78
2022/04/27 04:53:21;;;;;;;8.93;4.28;;;8.40;99.90;;;;;;5089286;28;20114;-77
2022/04/27 04:55:49;;;;;;;8.20;4.25;;;8.40;99.90;;;;;;5089266;27;20055;-78
2022/04/27 04:58:15;;;;;;;11.02;4.78;;;8.30;99.90;;;;;;5073093;28;20036;-78
2022/04/27 05:00:43;;;;;;;8.60;4.28;;;8.30;99.90;;;;;;5087903;28;20425;-77
2022/04/27 05:03:09;;;;;;;9.75;4.97;;;8.30;99.90;;;;;;5073584;28;20044;-79
2022/04/27 05:05:54;;;;;;;6.63;3.83;;;8.10;99.90;;;;;;5074558;28;20044;-80
2022/04/27 05:08:20;;;;;;;9.00;5.00;;;8.30;99.90;;;;;;5076800;28;20111;-78
2022/04/27 05:11:05;;;;;;;11.75;4.03;;;8.30;99.90;;;;;;5077209;28;20044;-81
2022/04/27 05:13:40;;;;;;;9.32;5.22;;;8.20;99.90;;;;;;5074594;28;20060;-80
2022/04/27 05:16:10;;;;;;;9.90;4.90;;;8.30;99.90;;;;;;5074188;28;20036;-80
2022/04/27 05:18:39;;;;;;;8.70;5.57;;;8.30;99.90;;;;;;5080409;28;20051;-79
2022/04/27 05:21:14;;;;;;;9.88;4.32;;;8.30;99.90;;;;;;5076994;28;20059;-79
2022/04/27 05:23:44;;;;;;;8.32;4.60;;;8.30;99.90;;;;;;5090126;28;20523;-80
2022/04/27 05:26:19;;;;;;;10.35;5.55;;;8.30;99.90;;;;;;5100756;28;20115;-78
2022/04/27 05:31:58;;;;;;;5.95;4.28;;;8.60;99.90;;;;;;5106791;28;20115;-80
2022/04/27 05:34:30;;;;;;;17.02;7.15;;;8.40;99.90;;;;;;5082825;28;20534;-81
2022/04/27 05:37:05;;;;;;;9.45;4.25;;;8.20;99.90;;;;;;5096445;28;20040;-79
2022/04/27 05:39:34;;;;;;;11.75;5.60;;;8.20;99.90;;;;;;5095012;28;20044;-81
2022/04/27 05:42:40;;;;;;;7.32;4.88;;;7.90;99.90;;;;;;5093891;27;20537;-83
2022/04/27 05:45:08;;;;;;;9.20;4.85;;;8.60;99.90;;;;;;5074922;28;20523;-82
2022/04/27 05:47:59;;;;;;;12.10;6.03;;;8.20;99.90;;;;;;5082723;28;20052;-81
2022/04/27 05:50:41;;;;;;;13.00;6.05;;;8.20;99.90;;;;;;5095780;27;20040;-81
2022/04/27 05:53:15;;;;;;;9.55;4.78;;;8.30;99.90;;;;;;5076795;28;20080;-81
2022/04/27 05:55:43;;;;;;;10.02;5.35;;;7.90;99.90;;;;;;5095510;28;20056;-81
2022/04/27 06:01:11;;;;;;;9.73;5.17;;;8.30;99.90;;;;;;5087302;28;20556;-80
2022/04/27 06:03:45;;;;;;;10.70;5.53;;;8.30;99.90;;;;;;5093053;27;20077;-80
2022/04/27 06:06:17;;;;;;;15.73;6.15;;;7.50;99.90;;;;;;5088600;28;20051;-81
2022/04/27 06:08:53;;;;;;;9.05;4.97;;;7.50;99.90;;;;;;5077419;28;20071;-81
2022/04/27 06:11:25;;;;;;;15.48;5.90;;;8.30;99.90;;;;;;5094593;28;20525;-82
2022/04/27 06:14:01;;;;;;;;;;;;;;;;;;;;;
2022/04/27 06:16:32;;;;;;;14.82;6.10;;;8.30;99.90;;;;;;5093914;28;45378;-81
2022/04/27 06:19:06;;;;;;;7.47;4.78;;;8.40;99.90;;;;;;5074971;28;20122;-81
2022/04/27 06:21:40;;;;;;;9.05;4.72;;;8.30;99.90;;;;;;5075502;28;20896;-81
2022/04/27 06:24:19;;;;;;;16.08;6.18;;;8.20;99.90;;;;;;5092947;28;20052;-81
2022/04/27 06:26:56;;;;;;;15.13;6.25;;;8.40;99.90;;;;;;5076277;28;20048;-81
2022/04/27 06:29:50;;;;;;;10.80;5.95;;;8.70;99.90;;;;;;5092924;28;20931;-81
2022/04/27 06:32:28;;;;;;;10.50;5.43;;;8.60;99.90;;;;;;5086217;28;20598;-81
2022/04/27 06:35:16;;;;;;;12.23;6.32;;;8.50;99.90;;;;;;5090152;28;20040;-81
2022/04/27 06:38:02;;;;;;;13.68;6.07;;;9.20;99.90;;;;;;5092401;27;20059;-83
2022/04/27 06:40:40;;;;;;;16.33;7.47;;;9.00;99.90;;;;;;5080756;28;20044;-82
2022/04/27 06:43:18;;;;;;;14.70;7.80;;;8.60;99.90;;;;;;5078024;28;20044;-81
2022/04/27 06:46:08;;;;;;;15.10;6.30;;;8.70;99.90;;;;;;5076294;28;20051;-82
2022/04/27 06:48:34;;;;;;;15.63;7.55;;;8.80;99.90;;;;;;5094730;27;20054;-82
2022/04/27 06:51:19;;;;;;;11.77;6.07;;;8.70;99.90;;;;;;5074316;28;20537;-81
2022/04/27 06:54:11;;;;;;;9.55;4.45;;;8.80;99.90;;;;;;5098329;28;20044;-82
2022/04/27 06:56:59;;;;;;;16.27;6.00;;;8.80;99.90;;;;;;5078892;28;20060;-82
2022/04/27 06:59:41;;;;;;;14.93;6.97;;;9.00;99.90;;;;;;5077571;28;20059;-81
2022/04/27 07:02:37;;;;;;;12.23;7.00;;;8.80;99.90;;;;;;5077743;28;20544;-82
2022/04/27 07:05:24;;;;;;;12.77;7.38;;;9.00;99.90;;;;;;5074403;28;20093;-82
2022/04/27 07:08:04;;;;;;;11.93;6.22;;;9.00;99.90;;;;;;5081597;28;20043;-81
2022/04/27 07:10:43;;;;;;;12.77;7.50;;;9.10;99.90;;;;;;5098059;28;20048;-82
2022/04/27 07:13:28;;;;;;;14.43;7.47;;;8.50;99.90;;;;;;5101020;28;20044;-81
2022/04/27 07:16:16;;;;;;;14.27;7.18;;;9.20;99.90;;;;;;5077412;28;20165;-82
2022/04/27 07:21:52;;;;;;;16.25;7.60;;;9.30;99.90;;;;;;5101812;28;20052;-82
2022/04/27 07:24:58;;;;;;;14.32;5.90;;;9.30;99.90;;;;;;5098487;28;20553;-82
2022/04/27 07:27:45;;;;;;;16.10;6.65;;;9.40;99.90;;;;;;5091856;28;20044;-81
2022/04/27 07:30:20;;;;;;;11.15;6.28;;;9.60;99.90;;;;;;5092560;28;20028;-82
2022/04/27 07:32:47;;;;;;;15.15;8.23;;;9.80;99.90;;;;;;5094377;28;20044;-82
2022/04/27 07:35:39;;;;;;;16.55;8.13;;;9.70;99.90;;;;;;5082575;28;20491;-82
2022/04/27 07:38:23;;;;;;;12.32;6.60;;;9.60;99.90;;;;;;5101744;28;20834;-82
2022/04/27 07:41:05;;;;;;;21.25;8.38;;;9.70;99.90;;;;;;5099672;28;20530;-82
2022/04/27 07:43:58;;;;;;;14.45;7.70;;;8.80;99.90;;;;;;5092223;28;20054;-82
2022/04/27 07:46:40;;;;;;;20.08;10.48;;;9.90;99.90;;;;;;5076513;28;20176;-83
2022/04/27 07:49:13;;;;;;;11.57;5.72;;;9.80;99.90;;;;;;5096884;28;20048;-82
2022/04/27 07:51:50;;;;;;;19.75;9.20;;;9.80;99.90;;;;;;5078943;28;20505;-83
2022/04/27 07:54:41;;;;;;;12.65;6.45;;;9.90;99.90;;;;;;5075601;28;20341;-82
2022/04/27 07:57:39;;;;;;;16.10;8.45;;;10.00;99.90;;;;;;5080161;28;20055;-82
2022/04/27 08:00:25;;;;;;;11.93;6.13;;;10.00;99.90;;;;;;5075444;28;20050;-82
2022/04/27 08:02:58;;;;;;;16.20;8.85;;;9.90;99.90;;;;;;5100752;28;20044;-82
2022/04/27 08:05:47;;;;;;;15.07;8.15;;;10.70;99.90;;;;;;5078368;28;20117;-82
2022/04/27 08:08:35;;;;;;;14.00;7.43;;;10.30;99.90;;;;;;5076299;28;20059;-82
2022/04/27 08:11:17;;;;;;;18.88;9.55;;;10.30;99.90;;;;;;5080148;28;20089;-82
2022/04/27 08:17:12;;;;;;;20.38;9.82;;;10.20;99.90;;;;;;5086222;28;20040;-82
2022/04/27 08:21:13;;;;;;;17.13;8.50;;;10.50;99.90;;;;;;5094451;28;20036;-82
2022/04/27 08:22:43;;;;;;;15.38;8.73;;;10.50;99.90;;;;;;5086934;28;20485;-84
2022/04/27 08:25:56;;;;;;;17.67;10.23;;;10.70;99.90;;;;;;5095395;28;20036;-82
2022/04/27 08:28:39;;;;;;;15.50;7.10;;;10.20;99.90;;;;;;5071623;28;20075;-83
2022/04/27 08:31:45;;;;;;;14.68;7.30;;;10.70;99.90;;;;;;5078985;28;20197;-82
2022/04/27 08:34:16;;;;;;;17.02;9.57;;;10.80;99.90;;;;;;5096018;28;20063;-82
2022/04/27 08:36:58;;;;;;;17.02;8.85;;;10.80;99.90;;;;;;5094248;28;20090;-82
2022/04/27 08:39:49;;;;;;;17.37;8.83;;;10.90;99.90;;;;;;5071070;28;20124;-82
2022/04/27 08:42:26;;;;;;;18.30;9.30;;;10.40;99.90;;;;;;5070350;28;20259;-83
2022/04/27 08:45:19;;;;;;;17.50;9.40;;;11.00;99.90;;;;;;5091751;28;20034;-82
2022/04/27 08:47:51;;;;;;;18.67;9.50;;;11.10;99.90;;;;;;5088230;27;20071;-84
2022/04/27 08:50:33;;;;;;;16.05;7.97;;;11.10;99.90;;;;;;5078362;28;20044;-83
2022/04/27 08:53:26;;;;;;;19.35;9.45;;;11.20;99.90;;;;;;5072395;28;20040;-83
2022/04/27 08:56:26;;;;;;;12.95;7.38;;;10.70;99.90;;;;;;5077145;28;20476;-83
2022/04/27 08:59:35;;;;;;;15.18;8.90;;;11.30;99.90;;;;;;5097304;28;20071;-81
2022/04/27 09:02:27;;;;;;;17.13;9.85;;;11.90;99.90;;;;;;5086809;28;20122;-82
2022/04/27 09:05:19;;;;;;;17.70;9.25;;;11.30;99.90;;;;;;5082151;28;20584;-82
2022/04/27 09:07:53;;;;;;;19.55;8.90;;;11.60;99.90;;;;;;5069903;28;20050;-82
2022/04/27 09:10:48;;;;;;;20.88;9.30;;;11.50;99.90;;;;;;5081853;28;20046;-84
2022/04/27 09:13:46;;;;;;;16.90;8.98;;;11.70;99.90;;;;;;5098189;28;20063;-84
2022/04/27 09:16:31;;;;;;;18.40;9.40;;;11.70;99.90;;;;;;5098421;27;20149;-84
2022/04/27 09:22:27;;;;;;;25.23;10.05;;;12.20;99.90;;;;;;5094677;28;20052;-83
2022/04/27 09:25:02;;;;;;;21.85;10.55;;;11.90;99.90;;;;;;5093836;27;20488;-83
2022/04/27 09:27:38;;;;;;;20.60;9.88;;;12.00;99.90;;;;;;5029254;28;20060;-83
2022/04/27 09:30:14;;;;;;;15.10;6.95;;;12.00;99.90;;;;;;5019558;28;20053;-83
2022/04/27 09:33:21;;;;;;;23.05;10.82;;;12.10;99.90;;;;;;5033793;28;20050;-83
2022/04/27 09:36:38;;;;;;;20.77;10.93;;;12.20;99.90;;;;;;5021944;28;20050;-83
2022/04/27 09:39:34;;;;;;;18.98;9.25;;;11.30;99.90;;;;;;5029317;28;20103;-83
2022/04/27 09:42:12;;;;;;;20.15;9.77;;;12.40;99.90;;;;;;5032516;28;20049;-84
2022/04/27 09:45:06;;;;;;;18.50;10.48;;;11.70;99.90;;;;;;5028562;28;20058;-84
2022/04/27 09:48:06;;;;;;;15.32;9.43;;;12.30;99.90;;;;;;5021738;28;20488;-84
2022/04/27 09:51:09;;;;;;;15.48;8.02;;;12.60;99.90;;;;;;5019849;28;20045;-84
2022/04/27 09:53:47;;;;;;;15.93;8.02;;;13.10;99.90;;;;;;5078072;28;20055;-84
2022/04/27 09:56:21;;;;;;;18.45;8.73;;;12.70;99.90;;;;;;5075209;28;20050;-84
2022/04/27 09:59:10;;;;;;;17.05;8.00;;;12.70;99.90;;;;;;5052387;28;20045;-83
2022/04/27 10:01:53;;;;;;;16.70;6.97;;;12.70;99.90;;;;;;5062737;28;20050;-83
2022/04/27 10:04:32;;;;;;;16.20;8.88;;;12.80;99.90;;;;;;5087534;28;20058;-83
2022/04/27 10:07:13;;;;;;;11.73;7.28;;;12.80;99.90;;;;;;5066633;28;20099;-83
2022/04/27 10:10:11;;;;;;;16.10;7.72;;;13.60;99.90;;;;;;5073120;28;20076;-83
2022/04/27 10:12:51;;;;;;;19.50;8.25;;;12.50;99.90;;;;;;5074146;28;20061;-83
2022/04/27 10:15:21;;;;;;;19.63;8.88;;;13.00;99.90;;;;;;5062776;28;20585;-84
2022/04/27 10:17:56;;;;;;;15.02;8.63;;;13.00;99.90;;;;;;5069939;28;20049;-84
2022/04/27 10:20:43;;;;;;;15.32;8.20;;;13.10;99.90;;;;;;5061794;28;20126;-84
2022/04/27 10:27:21;;;;;;;16.17;8.23;;;13.80;99.90;;;;;;5061018;28;20068;-83
2022/04/27 10:30:07;;;;;;;17.80;9.07;;;13.40;99.90;;;;;;4974490;28;20166;-84
2022/04/27 10:32:53;;;;;;;18.58;9.32;;;13.30;99.90;;;;;;5029347;28;20053;-83
2022/04/27 10:35:21;;;;;;;19.38;8.23;;;13.40;99.90;;;;;;5043463;28;20539;-83
2022/04/27 10:38:09;;;;;;;;;;;;;;;;;;;;;
2022/04/27 10:40:41;;;;;;;15.43;7.15;;;12.80;99.90;;;;;;5057927;28;42196;-83
2022/04/27 10:43:27;;;;;;;18.30;8.40;;;13.40;99.90;;;;;;5039975;28;20037;-83
2022/04/27 10:46:19;;;;;;;15.43;8.13;;;13.60;99.90;;;;;;5049075;28;20053;-83
2022/04/27 10:49:29;;;;;;;14.95;8.73;;;13.50;99.90;;;;;;5050378;28;20073;-83
2022/04/27 10:52:03;;;;;;;14.40;8.23;;;13.60;99.90;;;;;;5075503;28;20038;-83
2022/04/27 10:54:39;;;;;;;14.40;7.88;;;13.70;99.90;;;;;;5061201;28;20041;-83
2022/04/27 10:57:26;;;;;;;13.98;7.68;;;13.80;99.90;;;;;;5077599;28;20049;-83
2022/04/27 11:00:23;;;;;;;16.48;9.00;;;13.90;99.90;;;;;;5078252;28;20037;-83
2022/04/27 11:03:07;;;;;;;16.40;7.63;;;14.00;99.90;;;;;;5049601;28;20040;-83
2022/04/27 11:05:50;;;;;;;16.55;7.03;;;14.10;99.90;;;;;;5096254;28;20063;-83
2022/04/27 11:09:13;;;;;;;15.68;8.18;;;14.20;99.90;;;;;;5077020;28;20045;-83
2022/04/27 11:12:13;;;;;;;14.05;8.85;;;14.40;99.90;;;;;;5073128;28;20044;-84
2022/04/27 11:15:07;;;;;;;;;;;;;;;;;;;;;
2022/04/27 11:17:56;;;;;;;18.10;8.25;;;14.90;99.90;;;;;;5075609;28;44289;-84
2022/04/27 11:20:27;;;;;;;17.88;7.60;;;14.50;99.90;;;;;;5069227;28;20599;-83
2022/04/27 11:23:34;;;;;;;15.25;8.18;;;14.70;99.90;;;;;;5069558;28;20051;-83
2022/04/27 11:26:22;;;;;;;13.63;7.72;;;14.90;99.90;;;;;;5074462;28;20501;-84
2022/04/27 11:29:06;;;;;;;14.43;8.95;;;14.80;99.90;;;;;;5070066;28;20166;-84
2022/04/27 11:31:47;;;;;;;14.95;8.93;;;15.30;99.90;;;;;;5095590;27;20040;-83
2022/04/27 11:34:51;;;;;;;13.55;7.68;;;15.40;99.90;;;;;;5075797;28;20574;-84
2022/04/27 11:37:38;;;;;;;12.25;6.82;;;15.70;99.90;;;;;;5069108;28;20051;-83
2022/04/27 11:40:42;;;;;;;13.27;5.80;;;16.10;99.90;;;;;;5092634;28;20095;-83
2022/04/27 11:43:27;;;;;;;12.82;7.93;;;16.10;99.90;;;;;;5073578;28;20130;-84
2022/04/27 11:46:14;;;;;;;12.98;7.05;;;16.20;99.90;;;;;;5070416;28;20033;-84
2022/04/27 11:48:48;;;;;;;15.90;7.60;;;16.10;99.90;;;;;;5077825;28;20040;-83
2022/04/27 11:51:34;;;;;;;16.33;7.82;;;16.10;99.90;;;;;;5076766;28;20527;-84
2022/04/27 11:54:10;;;;;;;12.30;6.40;;;15.90;99.90;;;;;;5090464;28;20584;-85
2022/04/27 11:56:42;;;;;;;12.20;5.57;;;15.80;99.90;;;;;;5074493;28;20514;-84
2022/04/27 11:59:20;;;;;;;11.18;6.38;;;15.70;99.90;;;;;;5090565;28;20096;-83
2022/04/27 12:02:01;;;;;;;10.32;5.03;;;16.20;99.90;;;;;;5090512;28;20045;-84
2022/04/27 12:04:40;;;;;;;;;;;;;;;;;;;;;
2022/04/27 12:07:24;;;;;;;8.80;5.40;;;15.80;99.90;;;;;;5072292;28;39992;-83
2022/04/27 12:10:13;;;;;;;9.82;6.00;;;15.90;99.90;;;;;;5076828;28;20043;-83
2022/04/27 12:13:02;;;;;;;11.30;5.72;;;15.90;99.90;;;;;;5077681;28;20044;-83
2022/04/27 12:15:48;;;;;;;;;;;;;;;;;;;;;
2022/04/27 12:18:48;;;;;;;;;;;;;;;;;;;;;
2022/04/27 12:21:44;;;;;;;13.13;6.85;;;16.30;99.90;;;;;;5075057;28;39505;-83
2022/04/27 12:24:45;;;;;;;10.10;5.70;;;16.50;99.60;;;;;;5073643;28;20059;-83
2022/04/27 12:27:27;;;;;;;10.80;6.22;;;16.10;98.90;;;;;;5071600;28;20143;-83
2022/04/27 12:30:20;;;;;;;11.88;5.60;;;16.00;98.90;;;;;;5072785;28;20120;-83
2022/04/27 12:33:00;;;;;;;10.57;5.45;;;15.80;98.90;;;;;;5075707;28;20146;-83
2022/04/27 12:38:37;;;;;;;12.68;6.93;;;16.40;98.90;;;;;;5079867;28;20052;-83
2022/04/27 12:41:04;;;;;;;9.93;4.95;;;16.40;98.20;;;;;;5074537;28;20049;-83
2022/04/27 12:43:50;;;;;;;9.30;5.80;;;16.50;98.20;;;;;;5072986;28;20044;-83
2022/04/27 12:46:42;;;;;;;11.98;7.55;;;16.60;97.90;;;;;;5073050;28;20033;-83
2022/04/27 12:49:23;;;;;;;11.55;6.10;;;16.40;97.90;;;;;;5076834;28;20044;-83
2022/04/27 12:51:58;;;;;;;11.88;6.35;;;16.50;97.90;;;;;;5071992;28;20132;-83
2022/04/27 12:54:46;;;;;;;10.98;5.90;;;16.60;97.70;;;;;;5079458;28;20101;-83
2022/04/27 12:57:21;;;;;;;11.38;6.93;;;16.70;97.60;;;;;;5084047;28;20053;-83
2022/04/27 13:00:27;;;;;;;;;;;;;;;;;;;;;
2022/04/27 13:03:03;;;;;;;10.38;6.50;;;16.60;97.00;;;;;;5099518;28;40348;-84
2022/04/27 13:05:41;;;;;;;13.52;6.80;;;16.50;96.90;;;;;;5068397;28;20761;-84
2022/04/27 13:08:10;;;;;;;10.27;5.63;;;16.50;96.70;;;;;;5074881;28;20051;-84
2022/04/27 13:13:48;;;;;;;11.70;6.13;;;16.40;96.70;;;;;;5095464;28;20055;-84
2022/04/27 13:16:34;;;;;;;10.05;5.68;;;16.70;96.50;;;;;;5080467;28;20052;-84
2022/04/27 13:19:07;;;;;;;9.85;5.68;;;16.70;96.30;;;;;;5074806;28;20064;-84
2022/04/27 13:21:48;;;;;;;13.05;7.35;;;16.70;96.30;;;;;;5076537;28;20053;-84
2022/04/27 13:24:23;;;;;;;8.05;5.03;;;16.80;96.30;;;;;;5070066;28;20079;-84
2022/04/27 13:27:08;;;;;;;10.65;5.85;;;16.80;96.20;;;;;;5077954;28;20048;-84
2022/04/27 13:29:34;;;;;;;10.75;6.00;;;16.90;95.90;;;;;;5076321;28;20445;-84
2022/04/27 13:32:13;;;;;;;8.73;4.97;;;17.10;95.80;;;;;;5082638;28;20736;-84
2022/04/27 13:34:44;;;;;;;8.32;5.35;;;17.10;95.80;;;;;;5079483;28;20041;-84
2022/04/27 13:37:44;;;;;;;14.95;5.28;;;17.00;95.60;;;;;;5072627;28;20170;-84
2022/04/27 13:40:11;;;;;;;9.07;5.13;;;17.50;95.70;;;;;;5079068;28;21496;-84
2022/04/27 13:42:53;;;;;;;12.98;6.07;;;17.10;95.40;;;;;;5075251;28;20047;-84
2022/04/27 13:45:36;;;;;;;13.15;5.63;;;17.10;95.30;;;;;;5096479;28;20233;-84
2022/04/27 13:51:27;;;;;;;6.25;3.17;;;17.10;95.20;;;;;;5101983;27;20048;-84
2022/04/27 13:54:16;;;;;;;8.35;4.72;;;17.10;94.90;;;;;;5086304;27;20047;-84
2022/04/27 13:56:53;;;;;;;7.50;5.07;;;17.30;95.00;;;;;;5079218;28;20052;-84
2022/04/27 13:59:30;;;;;;;6.32;3.90;;;17.20;94.60;;;;;;5084093;28;20036;-84
2022/04/27 14:02:12;;;;;;;6.35;4.55;;;17.20;94.40;;;;;;5083582;28;20055;-84
2022/04/27 14:05:00;;;;;;;8.35;4.43;;;17.50;94.40;;;;;;5117321;28;20046;-83
2022/04/27 14:07:35;;;;;;;9.15;4.10;;;17.30;94.10;;;;;;5080748;28;20044;-84
2022/04/27 14:10:17;;;;;;;9.75;4.63;;;17.40;94.00;;;;;;5115841;28;20048;-84
2022/04/27 14:13:14;;;;;;;7.60;4.70;;;17.40;94.00;;;;;;5114815;28;20040;-84
2022/04/27 14:18:42;;;;;;;4.85;3.20;;;17.30;93.70;;;;;;5083182;28;20443;-84
2022/04/27 14:21:41;;;;;;;6.97;4.25;;;17.40;93.70;;;;;;5079548;28;20098;-84
2022/04/27 14:24:29;;;;;;;7.60;4.50;;;17.40;93.50;;;;;;5080253;28;20055;-84
2022/04/27 14:26:57;;;;;;;5.00;3.87;;;17.50;93.50;;;;;;5081106;28;20047;-84
2022/04/27 14:29:45;;;;;;;6.63;4.43;;;17.50;93.50;;;;;;5077672;28;20091;-84